sensor_id;sensor_type;location;lat;lon;timestamp;temperature;humidity
79698;SHT31;69168;42.708;23.286;2023-12-22T00:01:13;2.02;74.10
79698;SHT31;69168;42.708;23.286;2023-12-22T00:03:45;2.23;73.82
79698;SHT31;69168;42.708;23.286;2023-12-22T00:06:15;2.30;73.51
79698;SHT31;69168;42.708;23.286;2023-12-22T00:08:41;2.21;73.51
79698;SHT31;69168;42.708;23.286;2023-12-22T00:11:06;2.26;73.45
79698;SHT31;69168;42.708;23.286;2023-12-22T00:13:32;2.23;73.72
79698;SHT31;69168;42.708;23.286;2023-12-22T00:15:59;2.16;73.66
79698;SHT31;69168;42.708;23.286;2023-12-22T00:18:26;2.34;73.26
79698;SHT31;69168;42.708;23.286;2023-12-22T00:20:51;2.47;73.13
79698;SHT31;69168;42.708;23.286;2023-12-22T00:23:17;2.51;72.31
79698;SHT31;69168;42.708;23.286;2023-12-22T00:25:42;2.47;72.91
79698;SHT31;69168;42.708;23.286;2023-12-22T00:28:08;2.50;72.68
79698;SHT31;69168;42.708;23.286;2023-12-22T00:30:33;2.39;73.23
79698;SHT31;69168;42.708;23.286;2023-12-22T00:32:59;2.32;73.75
79698;SHT31;69168;42.708;23.286;2023-12-22T00:35:24;2.44;73.19
79698;SHT31;69168;42.708;23.286;2023-12-22T00:37:50;2.47;73.08
79698;SHT31;69168;42.708;23.286;2023-12-22T00:40:15;2.39;73.72
79698;SHT31;69168;42.708;23.286;2023-12-22T00:42:41;2.49;73.64
79698;SHT31;69168;42.708;23.286;2023-12-22T00:45:07;2.40;73.81
79698;SHT31;69168;42.708;23.286;2023-12-22T00:47:32;2.54;73.55
79698;SHT31;69168;42.708;23.286;2023-12-22T00:50:01;2.50;73.57
79698;SHT31;69168;42.708;23.286;2023-12-22T00:52:27;2.44;73.88
79698;SHT31;69168;42.708;23.286;2023-12-22T00:54:53;2.49;73.98
79698;SHT31;69168;42.708;23.286;2023-12-22T00:57:18;2.44;74.20
79698;SHT31;69168;42.708;23.286;2023-12-22T00:59:44;2.61;73.76
79698;SHT31;69168;42.708;23.286;2023-12-22T01:02:16;2.49;73.76
79698;SHT31;69168;42.708;23.286;2023-12-22T01:04:41;2.46;74.09
79698;SHT31;69168;42.708;23.286;2023-12-22T01:07:08;2.30;74.53
79698;SHT31;69168;42.708;23.286;2023-12-22T01:09:34;2.32;74.30
79698;SHT31;69168;42.708;23.286;2023-12-22T01:11:59;2.25;74.57
79698;SHT31;69168;42.708;23.286;2023-12-22T01:14:28;2.32;74.40
79698;SHT31;69168;42.708;23.286;2023-12-22T01:16:54;2.36;74.27
79698;SHT31;69168;42.708;23.286;2023-12-22T01:19:20;2.57;73.88
79698;SHT31;69168;42.708;23.286;2023-12-22T01:21:45;2.71;72.92
79698;SHT31;69168;42.708;23.286;2023-12-22T01:24:11;2.67;73.07
79698;SHT31;69168;42.708;23.286;2023-12-22T01:26:36;2.64;73.17
79698;SHT31;69168;42.708;23.286;2023-12-22T01:29:02;2.62;73.44
79698;SHT31;69168;42.708;23.286;2023-12-22T01:31:27;2.80;73.16
79698;SHT31;69168;42.708;23.286;2023-12-22T01:33:53;2.88;72.54
79698;SHT31;69168;42.708;23.286;2023-12-22T01:36:19;2.87;71.99
79698;SHT31;69168;42.708;23.286;2023-12-22T01:38:44;2.87;72.08
79698;SHT31;69168;42.708;23.286;2023-12-22T01:41:10;2.83;72.34
79698;SHT31;69168;42.708;23.286;2023-12-22T01:43:35;2.57;73.12
79698;SHT31;69168;42.708;23.286;2023-12-22T01:46:01;2.56;73.54
79698;SHT31;69168;42.708;23.286;2023-12-22T01:48:27;2.80;72.68
79698;SHT31;69168;42.708;23.286;2023-12-22T01:50:55;2.68;72.90
79698;SHT31;69168;42.708;23.286;2023-12-22T01:53:22;2.71;72.78
79698;SHT31;69168;42.708;23.286;2023-12-22T01:55:50;2.60;73.16
79698;SHT31;69168;42.708;23.286;2023-12-22T01:58:17;2.67;72.85
79698;SHT31;69168;42.708;23.286;2023-12-22T02:00:43;2.60;73.30
79698;SHT31;69168;42.708;23.286;2023-12-22T02:03:09;2.53;73.83
79698;SHT31;69168;42.708;23.286;2023-12-22T02:05:34;2.64;73.62
79698;SHT31;69168;42.708;23.286;2023-12-22T02:08:00;2.64;73.48
79698;SHT31;69168;42.708;23.286;2023-12-22T02:10:26;2.65;73.57
79698;SHT31;69168;42.708;23.286;2023-12-22T02:12:51;2.71;73.41
79698;SHT31;69168;42.708;23.286;2023-12-22T02:15:17;2.71;73.24
79698;SHT31;69168;42.708;23.286;2023-12-22T02:17:44;2.73;73.41
79698;SHT31;69168;42.708;23.286;2023-12-22T02:20:13;2.60;73.86
79698;SHT31;69168;42.708;23.286;2023-12-22T02:22:38;2.68;73.53
79698;SHT31;69168;42.708;23.286;2023-12-22T02:25:04;2.56;73.68
79698;SHT31;69168;42.708;23.286;2023-12-22T02:30:16;2.71;73.36
79698;SHT31;69168;42.708;23.286;2023-12-22T02:32:47;2.54;74.02
79698;SHT31;69168;42.708;23.286;2023-12-22T02:35:20;2.53;74.13
79698;SHT31;69168;42.708;23.286;2023-12-22T02:37:47;2.57;73.94
79698;SHT31;69168;42.708;23.286;2023-12-22T02:40:14;2.53;74.10
79698;SHT31;69168;42.708;23.286;2023-12-22T02:42:40;2.67;73.48
79698;SHT31;69168;42.708;23.286;2023-12-22T02:45:13;2.67;72.97
79698;SHT31;69168;42.708;23.286;2023-12-22T02:47:39;2.43;74.20
79698;SHT31;69168;42.708;23.286;2023-12-22T02:50:06;2.60;73.67
79698;SHT31;69168;42.708;23.286;2023-12-22T02:52:31;2.64;73.84
79698;SHT31;69168;42.708;23.286;2023-12-22T02:54:57;2.76;73.34
79698;SHT31;69168;42.708;23.286;2023-12-22T02:57:23;2.71;73.29
79698;SHT31;69168;42.708;23.286;2023-12-22T02:59:49;2.70;73.45
79698;SHT31;69168;42.708;23.286;2023-12-22T03:02:14;2.74;73.16
79698;SHT31;69168;42.708;23.286;2023-12-22T03:04:40;2.76;72.67
79698;SHT31;69168;42.708;23.286;2023-12-22T03:07:05;2.77;72.86
79698;SHT31;69168;42.708;23.286;2023-12-22T03:09:31;2.98;72.29
79698;SHT31;69168;42.708;23.286;2023-12-22T03:11:57;2.85;72.44
79698;SHT31;69168;42.708;23.286;2023-12-22T03:14:29;2.85;72.95
79698;SHT31;69168;42.708;23.286;2023-12-22T03:16:55;2.68;73.43
79698;SHT31;69168;42.708;23.286;2023-12-22T03:19:21;2.64;73.62
79698;SHT31;69168;42.708;23.286;2023-12-22T03:21:48;2.62;73.93
79698;SHT31;69168;42.708;23.286;2023-12-22T03:24:13;2.60;73.83
79698;SHT31;69168;42.708;23.286;2023-12-22T03:26:39;2.56;74.11
79698;SHT31;69168;42.708;23.286;2023-12-22T03:29:05;2.44;74.33
79698;SHT31;69168;42.708;23.286;2023-12-22T03:31:30;2.49;74.28
79698;SHT31;69168;42.708;23.286;2023-12-22T03:33:56;2.54;74.59
79698;SHT31;69168;42.708;23.286;2023-12-22T03:36:21;2.61;74.24
79698;SHT31;69168;42.708;23.286;2023-12-22T03:38:47;2.51;74.54
79698;SHT31;69168;42.708;23.286;2023-12-22T03:41:12;2.62;74.23
79698;SHT31;69168;42.708;23.286;2023-12-22T03:43:38;2.73;73.72
79698;SHT31;69168;42.708;23.286;2023-12-22T03:46:03;2.65;74.39
79698;SHT31;69168;42.708;23.286;2023-12-22T03:48:29;2.56;74.75
79698;SHT31;69168;42.708;23.286;2023-12-22T03:50:54;2.70;74.15
79698;SHT31;69168;42.708;23.286;2023-12-22T03:53:20;2.71;73.93
79698;SHT31;69168;42.708;23.286;2023-12-22T03:55:46;2.56;74.47
79698;SHT31;69168;42.708;23.286;2023-12-22T03:58:11;2.64;74.81
79698;SHT31;69168;42.708;23.286;2023-12-22T04:00:37;2.76;74.17
79698;SHT31;69168;42.708;23.286;2023-12-22T04:03:03;2.71;74.26
79698;SHT31;69168;42.708;23.286;2023-12-22T04:05:29;2.78;74.59
79698;SHT31;69168;42.708;23.286;2023-12-22T04:07:55;2.76;75.14
79698;SHT31;69168;42.708;23.286;2023-12-22T04:10:20;2.78;75.11
79698;SHT31;69168;42.708;23.286;2023-12-22T04:12:46;2.81;74.96
79698;SHT31;69168;42.708;23.286;2023-12-22T04:15:11;2.80;74.67
79698;SHT31;69168;42.708;23.286;2023-12-22T04:17:38;2.95;74.66
79698;SHT31;69168;42.708;23.286;2023-12-22T04:20:05;3.06;73.96
79698;SHT31;69168;42.708;23.286;2023-12-22T04:22:31;3.01;74.15
79698;SHT31;69168;42.708;23.286;2023-12-22T04:24:56;3.16;73.75
79698;SHT31;69168;42.708;23.286;2023-12-22T04:27:22;3.08;74.04
79698;SHT31;69168;42.708;23.286;2023-12-22T04:29:47;2.99;74.41
79698;SHT31;69168;42.708;23.286;2023-12-22T04:32:13;2.87;74.20
79698;SHT31;69168;42.708;23.286;2023-12-22T04:34:38;3.02;74.59
79698;SHT31;69168;42.708;23.286;2023-12-22T04:37:04;2.85;74.95
79698;SHT31;69168;42.708;23.286;2023-12-22T04:39:29;2.76;75.49
79698;SHT31;69168;42.708;23.286;2023-12-22T04:41:55;2.71;76.08
79698;SHT31;69168;42.708;23.286;2023-12-22T04:44:20;2.64;77.26
79698;SHT31;69168;42.708;23.286;2023-12-22T04:46:46;2.71;77.04
79698;SHT31;69168;42.708;23.286;2023-12-22T04:49:11;2.76;77.40
79698;SHT31;69168;42.708;23.286;2023-12-22T04:51:37;2.78;77.52
79698;SHT31;69168;42.708;23.286;2023-12-22T04:54:02;2.83;77.59
79698;SHT31;69168;42.708;23.286;2023-12-22T04:56:28;2.95;76.43
79698;SHT31;69168;42.708;23.286;2023-12-22T04:58:54;3.04;75.52
79698;SHT31;69168;42.708;23.286;2023-12-22T05:01:19;3.01;75.68
79698;SHT31;69168;42.708;23.286;2023-12-22T05:03:46;2.97;76.53
79698;SHT31;69168;42.708;23.286;2023-12-22T05:06:11;3.06;76.73
79698;SHT31;69168;42.708;23.286;2023-12-22T05:08:37;2.88;76.30
79698;SHT31;69168;42.708;23.286;2023-12-22T05:11:02;2.84;76.77
79698;SHT31;69168;42.708;23.286;2023-12-22T05:13:30;2.97;77.05
79698;SHT31;69168;42.708;23.286;2023-12-22T05:15:56;2.89;77.05
79698;SHT31;69168;42.708;23.286;2023-12-22T05:18:21;2.95;76.52
79698;SHT31;69168;42.708;23.286;2023-12-22T05:20:47;2.89;77.37
79698;SHT31;69168;42.708;23.286;2023-12-22T05:23:12;3.04;77.27
79698;SHT31;69168;42.708;23.286;2023-12-22T05:25:38;3.04;77.21
79698;SHT31;69168;42.708;23.286;2023-12-22T05:28:03;3.04;77.35
79698;SHT31;69168;42.708;23.286;2023-12-22T05:30:29;3.11;76.50
79698;SHT31;69168;42.708;23.286;2023-12-22T05:32:54;3.06;76.80
79698;SHT31;69168;42.708;23.286;2023-12-22T05:35:20;3.11;76.56
79698;SHT31;69168;42.708;23.286;2023-12-22T05:37:49;2.88;77.75
79698;SHT31;69168;42.708;23.286;2023-12-22T05:40:14;2.94;77.78
79698;SHT31;69168;42.708;23.286;2023-12-22T05:42:40;2.94;78.45
79698;SHT31;69168;42.708;23.286;2023-12-22T05:45:06;3.23;78.05
79698;SHT31;69168;42.708;23.286;2023-12-22T05:47:32;3.27;77.81
79698;SHT31;69168;42.708;23.286;2023-12-22T05:49:59;3.30;77.69
79698;SHT31;69168;42.708;23.286;2023-12-22T05:52:24;3.46;77.73
79698;SHT31;69168;42.708;23.286;2023-12-22T05:54:50;3.47;77.30
79698;SHT31;69168;42.708;23.286;2023-12-22T05:57:15;3.32;78.10
79698;SHT31;69168;42.708;23.286;2023-12-22T05:59:42;3.36;78.11
79698;SHT31;69168;42.708;23.286;2023-12-22T06:02:08;3.36;78.04
79698;SHT31;69168;42.708;23.286;2023-12-22T06:04:33;3.43;78.15
79698;SHT31;69168;42.708;23.286;2023-12-22T06:07:00;3.50;78.36
79698;SHT31;69168;42.708;23.286;2023-12-22T06:09:25;3.57;77.67
79698;SHT31;69168;42.708;23.286;2023-12-22T06:11:51;3.44;77.96
79698;SHT31;69168;42.708;23.286;2023-12-22T06:14:17;3.30;78.61
79698;SHT31;69168;42.708;23.286;2023-12-22T06:16:42;3.30;78.92
79698;SHT31;69168;42.708;23.286;2023-12-22T06:19:08;3.30;79.15
79698;SHT31;69168;42.708;23.286;2023-12-22T06:21:37;3.42;79.12
79698;SHT31;69168;42.708;23.286;2023-12-22T06:24:03;3.47;78.57
79698;SHT31;69168;42.708;23.286;2023-12-22T06:26:31;3.81;77.62
79698;SHT31;69168;42.708;23.286;2023-12-22T06:28:57;3.64;77.85
79698;SHT31;69168;42.708;23.286;2023-12-22T06:31:22;3.56;77.96
79698;SHT31;69168;42.708;23.286;2023-12-22T06:33:49;3.46;78.62
79698;SHT31;69168;42.708;23.286;2023-12-22T06:36:21;3.59;78.24
79698;SHT31;69168;42.708;23.286;2023-12-22T06:38:48;3.47;78.62
79698;SHT31;69168;42.708;23.286;2023-12-22T06:41:25;3.71;78.49
79698;SHT31;69168;42.708;23.286;2023-12-22T06:43:51;4.03;77.33
79698;SHT31;69168;42.708;23.286;2023-12-22T06:46:18;3.90;77.17
79698;SHT31;69168;42.708;23.286;2023-12-22T06:48:44;3.82;77.75
79698;SHT31;69168;42.708;23.286;2023-12-22T06:53:46;3.74;77.97
79698;SHT31;69168;42.708;23.286;2023-12-22T06:56:22;3.75;78.17
79698;SHT31;69168;42.708;23.286;2023-12-22T06:58:49;3.78;78.17
79698;SHT31;69168;42.708;23.286;2023-12-22T07:01:19;3.70;78.77
79698;SHT31;69168;42.708;23.286;2023-12-22T07:03:46;3.73;78.64
79698;SHT31;69168;42.708;23.286;2023-12-22T07:06:17;3.81;78.66
79698;SHT31;69168;42.708;23.286;2023-12-22T07:08:43;3.78;78.94
79698;SHT31;69168;42.708;23.286;2023-12-22T07:11:10;3.82;78.79
79698;SHT31;69168;42.708;23.286;2023-12-22T07:13:37;3.98;78.43
79698;SHT31;69168;42.708;23.286;2023-12-22T07:16:04;3.87;78.55
79698;SHT31;69168;42.708;23.286;2023-12-22T07:18:30;3.85;79.01
79698;SHT31;69168;42.708;23.286;2023-12-22T07:20:59;3.87;79.41
79698;SHT31;69168;42.708;23.286;2023-12-22T07:23:25;3.90;79.20
79698;SHT31;69168;42.708;23.286;2023-12-22T07:25:51;3.84;80.23
79698;SHT31;69168;42.708;23.286;2023-12-22T07:28:16;3.87;79.62
79698;SHT31;69168;42.708;23.286;2023-12-22T07:30:42;3.85;80.15
79698;SHT31;69168;42.708;23.286;2023-12-22T07:33:07;3.87;80.29
79698;SHT31;69168;42.708;23.286;2023-12-22T07:35:36;3.97;80.18
79698;SHT31;69168;42.708;23.286;2023-12-22T07:38:02;4.03;80.12
79698;SHT31;69168;42.708;23.286;2023-12-22T07:40:31;4.02;79.89
79698;SHT31;69168;42.708;23.286;2023-12-22T07:42:59;4.05;80.04
79698;SHT31;69168;42.708;23.286;2023-12-22T07:45:25;4.02;80.76
79698;SHT31;69168;42.708;23.286;2023-12-22T07:47:50;4.12;80.14
79698;SHT31;69168;42.708;23.286;2023-12-22T07:50:16;4.16;80.08
79698;SHT31;69168;42.708;23.286;2023-12-22T07:52:41;4.06;80.57
79698;SHT31;69168;42.708;23.286;2023-12-22T07:55:09;4.16;80.42
79698;SHT31;69168;42.708;23.286;2023-12-22T07:57:36;4.25;80.60
79698;SHT31;69168;42.708;23.286;2023-12-22T08:00:02;4.25;80.63
79698;SHT31;69168;42.708;23.286;2023-12-22T08:02:28;4.20;80.69
79698;SHT31;69168;42.708;23.286;2023-12-22T08:04:54;4.29;80.71
79698;SHT31;69168;42.708;23.286;2023-12-22T08:07:19;4.25;81.08
79698;SHT31;69168;42.708;23.286;2023-12-22T08:09:45;4.26;81.71
79698;SHT31;69168;42.708;23.286;2023-12-22T08:12:11;4.28;81.46
79698;SHT31;69168;42.708;23.286;2023-12-22T08:14:36;4.33;81.26
79698;SHT31;69168;42.708;23.286;2023-12-22T08:17:02;4.36;81.50
79698;SHT31;69168;42.708;23.286;2023-12-22T08:19:27;4.33;81.82
79698;SHT31;69168;42.708;23.286;2023-12-22T08:21:53;4.43;81.82
79698;SHT31;69168;42.708;23.286;2023-12-22T08:24:20;4.54;82.14
79698;SHT31;69168;42.708;23.286;2023-12-22T08:26:45;4.52;81.96
79698;SHT31;69168;42.708;23.286;2023-12-22T08:29:11;4.52;81.96
79698;SHT31;69168;42.708;23.286;2023-12-22T08:31:36;4.54;82.06
79698;SHT31;69168;42.708;23.286;2023-12-22T08:34:02;4.63;81.86
79698;SHT31;69168;42.708;23.286;2023-12-22T08:36:27;4.54;82.15
79698;SHT31;69168;42.708;23.286;2023-12-22T08:38:53;4.44;82.13
79698;SHT31;69168;42.708;23.286;2023-12-22T08:41:18;4.42;82.92
79698;SHT31;69168;42.708;23.286;2023-12-22T08:43:44;4.42;82.91
79698;SHT31;69168;42.708;23.286;2023-12-22T08:46:09;4.49;82.88
79698;SHT31;69168;42.708;23.286;2023-12-22T08:48:35;4.54;82.94
79698;SHT31;69168;42.708;23.286;2023-12-22T08:51:01;4.67;82.54
79698;SHT31;69168;42.708;23.286;2023-12-22T08:53:26;4.35;83.79
79698;SHT31;69168;42.708;23.286;2023-12-22T08:55:55;4.43;83.10
79698;SHT31;69168;42.708;23.286;2023-12-22T08:58:21;4.26;83.25
79698;SHT31;69168;42.708;23.286;2023-12-22T09:00:47;4.26;83.92
79698;SHT31;69168;42.708;23.286;2023-12-22T09:03:13;4.37;83.32
79698;SHT31;69168;42.708;23.286;2023-12-22T09:05:38;4.44;82.63
79698;SHT31;69168;42.708;23.286;2023-12-22T09:08:04;4.29;83.14
79698;SHT31;69168;42.708;23.286;2023-12-22T09:10:31;4.15;84.19
79698;SHT31;69168;42.708;23.286;2023-12-22T09:12:57;4.18;84.34
79698;SHT31;69168;42.708;23.286;2023-12-22T09:15:23;4.19;84.07
79698;SHT31;69168;42.708;23.286;2023-12-22T09:17:49;4.26;84.41
79698;SHT31;69168;42.708;23.286;2023-12-22T09:20:17;4.30;84.39
79698;SHT31;69168;42.708;23.286;2023-12-22T09:22:43;4.18;84.99
79698;SHT31;69168;42.708;23.286;2023-12-22T09:25:08;4.29;85.12
79698;SHT31;69168;42.708;23.286;2023-12-22T09:27:37;4.32;84.99
79698;SHT31;69168;42.708;23.286;2023-12-22T09:30:04;4.22;85.65
79698;SHT31;69168;42.708;23.286;2023-12-22T09:32:32;4.36;85.39
79698;SHT31;69168;42.708;23.286;2023-12-22T09:34:58;4.44;85.24
79698;SHT31;69168;42.708;23.286;2023-12-22T09:37:25;4.37;85.71
79698;SHT31;69168;42.708;23.286;2023-12-22T09:39:51;4.46;85.66
79698;SHT31;69168;42.708;23.286;2023-12-22T09:42:16;4.43;86.14
79698;SHT31;69168;42.708;23.286;2023-12-22T09:44:42;4.52;86.06
79698;SHT31;69168;42.708;23.286;2023-12-22T09:47:09;4.58;86.11
79698;SHT31;69168;42.708;23.286;2023-12-22T09:49:35;4.68;85.86
79698;SHT31;69168;42.708;23.286;2023-12-22T09:52:02;4.81;85.25
79698;SHT31;69168;42.708;23.286;2023-12-22T09:54:31;5.04;85.08
79698;SHT31;69168;42.708;23.286;2023-12-22T09:57:00;5.04;84.61
79698;SHT31;69168;42.708;23.286;2023-12-22T09:59:26;5.04;85.13
79698;SHT31;69168;42.708;23.286;2023-12-22T10:01:54;5.11;84.97
79698;SHT31;69168;42.708;23.286;2023-12-22T10:04:20;5.36;84.59
79698;SHT31;69168;42.708;23.286;2023-12-22T10:06:47;5.36;84.59
79698;SHT31;69168;42.708;23.286;2023-12-22T10:09:15;5.25;84.58
79698;SHT31;69168;42.708;23.286;2023-12-22T10:11:43;5.22;84.23
79698;SHT31;69168;42.708;23.286;2023-12-22T10:14:09;5.44;84.30
79698;SHT31;69168;42.708;23.286;2023-12-22T10:16:36;5.37;84.44
79698;SHT31;69168;42.708;23.286;2023-12-22T10:19:03;5.35;83.50
79698;SHT31;69168;42.708;23.286;2023-12-22T10:21:29;5.60;83.60
79698;SHT31;69168;42.708;23.286;2023-12-22T10:23:56;5.35;83.16
79698;SHT31;69168;42.708;23.286;2023-12-22T10:26:21;5.47;83.31
79698;SHT31;69168;42.708;23.286;2023-12-22T10:28:50;5.60;83.00
79698;SHT31;69168;42.708;23.286;2023-12-22T10:31:17;5.64;83.44
79698;SHT31;69168;42.708;23.286;2023-12-22T10:33:43;5.61;82.64
79698;SHT31;69168;42.708;23.286;2023-12-22T10:36:09;5.70;82.78
79698;SHT31;69168;42.708;23.286;2023-12-22T10:38:35;5.66;82.02
79698;SHT31;69168;42.708;23.286;2023-12-22T10:41:03;5.64;82.87
79698;SHT31;69168;42.708;23.286;2023-12-22T10:43:30;5.79;82.67
79698;SHT31;69168;42.708;23.286;2023-12-22T10:45:56;5.90;81.29
79698;SHT31;69168;42.708;23.286;2023-12-22T10:48:25;6.11;81.99
79698;SHT31;69168;42.708;23.286;2023-12-22T10:50:53;6.26;81.28
79698;SHT31;69168;42.708;23.286;2023-12-22T10:53:21;6.47;80.40
79698;SHT31;69168;42.708;23.286;2023-12-22T10:55:46;6.66;80.69
79698;SHT31;69168;42.708;23.286;2023-12-22T10:58:16;6.49;79.91
79698;SHT31;69168;42.708;23.286;2023-12-22T11:00:44;6.57;79.65
79698;SHT31;69168;42.708;23.286;2023-12-22T11:03:13;6.54;79.99
79698;SHT31;69168;42.708;23.286;2023-12-22T11:05:44;6.77;80.26
79698;SHT31;69168;42.708;23.286;2023-12-22T11:08:11;6.92;79.93
79698;SHT31;69168;42.708;23.286;2023-12-22T11:10:41;7.09;79.85
79698;SHT31;69168;42.708;23.286;2023-12-22T11:13:09;7.29;80.38
79698;SHT31;69168;42.708;23.286;2023-12-22T11:15:35;7.46;79.73
79698;SHT31;69168;42.708;23.286;2023-12-22T11:18:01;7.27;77.06
79698;SHT31;69168;42.708;23.286;2023-12-22T11:20:27;7.23;76.28
79698;SHT31;69168;42.708;23.286;2023-12-22T11:22:58;7.32;76.57
79698;SHT31;69168;42.708;23.286;2023-12-22T11:25:24;7.23;75.86
79698;SHT31;69168;42.708;23.286;2023-12-22T11:27:52;7.19;75.03
79698;SHT31;69168;42.708;23.286;2023-12-22T11:30:20;7.30;74.98
79698;SHT31;69168;42.708;23.286;2023-12-22T11:32:46;7.24;75.26
79698;SHT31;69168;42.708;23.286;2023-12-22T11:35:14;6.96;76.11
79698;SHT31;69168;42.708;23.286;2023-12-22T11:37:42;7.06;75.78
79698;SHT31;69168;42.708;23.286;2023-12-22T11:40:07;7.12;74.99
79698;SHT31;69168;42.708;23.286;2023-12-22T11:42:43;7.08;74.83
79698;SHT31;69168;42.708;23.286;2023-12-22T11:45:11;7.08;73.78
79698;SHT31;69168;42.708;23.286;2023-12-22T11:47:38;7.09;73.59
79698;SHT31;69168;42.708;23.286;2023-12-22T11:50:09;7.08;72.32
79698;SHT31;69168;42.708;23.286;2023-12-22T11:52:36;7.02;72.19
79698;SHT31;69168;42.708;23.286;2023-12-22T11:55:01;7.02;73.12
79698;SHT31;69168;42.708;23.286;2023-12-22T11:59:57;6.98;72.42
79698;SHT31;69168;42.708;23.286;2023-12-22T12:02:23;7.01;72.30
79698;SHT31;69168;42.708;23.286;2023-12-22T12:04:50;7.11;72.27
79698;SHT31;69168;42.708;23.286;2023-12-22T12:07:52;7.08;73.01
79698;SHT31;69168;42.708;23.286;2023-12-22T12:13:08;6.92;72.88
79698;SHT31;69168;42.708;23.286;2023-12-22T12:15:34;6.99;72.21
79698;SHT31;69168;42.708;23.286;2023-12-22T12:18:01;6.88;72.10
79698;SHT31;69168;42.708;23.286;2023-12-22T12:20:27;6.88;72.02
79698;SHT31;69168;42.708;23.286;2023-12-22T12:22:53;6.74;72.19
79698;SHT31;69168;42.708;23.286;2023-12-22T12:25:22;6.71;72.57
79698;SHT31;69168;42.708;23.286;2023-12-22T12:27:53;6.67;72.35
79698;SHT31;69168;42.708;23.286;2023-12-22T12:30:26;6.80;71.71
79698;SHT31;69168;42.708;23.286;2023-12-22T12:32:51;6.73;71.62
79698;SHT31;69168;42.708;23.286;2023-12-22T12:35:18;6.68;71.70
79698;SHT31;69168;42.708;23.286;2023-12-22T12:37:44;6.80;71.41
79698;SHT31;69168;42.708;23.286;2023-12-22T12:40:15;6.80;71.19
79698;SHT31;69168;42.708;23.286;2023-12-22T12:42:43;6.77;71.18
79698;SHT31;69168;42.708;23.286;2023-12-22T12:45:09;6.92;70.88
79698;SHT31;69168;42.708;23.286;2023-12-22T12:47:34;6.83;70.44
79698;SHT31;69168;42.708;23.286;2023-12-22T12:50:01;6.85;70.10
79698;SHT31;69168;42.708;23.286;2023-12-22T12:52:27;6.83;70.04
79698;SHT31;69168;42.708;23.286;2023-12-22T12:54:53;6.74;70.20
79698;SHT31;69168;42.708;23.286;2023-12-22T12:57:18;6.70;70.42
79698;SHT31;69168;42.708;23.286;2023-12-22T12:59:48;6.84;69.95
79698;SHT31;69168;42.708;23.286;2023-12-22T13:02:18;6.85;70.19
79698;SHT31;69168;42.708;23.286;2023-12-22T13:04:44;6.77;70.10
79698;SHT31;69168;42.708;23.286;2023-12-22T13:07:13;6.83;69.66
79698;SHT31;69168;42.708;23.286;2023-12-22T13:09:39;6.81;70.19
79698;SHT31;69168;42.708;23.286;2023-12-22T13:12:05;6.80;69.96
79698;SHT31;69168;42.708;23.286;2023-12-22T13:14:30;6.77;69.84
79698;SHT31;69168;42.708;23.286;2023-12-22T13:16:57;6.77;69.88
79698;SHT31;69168;42.708;23.286;2023-12-22T13:19:23;6.83;69.80
79698;SHT31;69168;42.708;23.286;2023-12-22T13:21:53;6.83;68.56
79698;SHT31;69168;42.708;23.286;2023-12-22T13:24:19;6.85;68.26
79698;SHT31;69168;42.708;23.286;2023-12-22T13:26:45;6.84;68.49
79698;SHT31;69168;42.708;23.286;2023-12-22T13:29:12;6.87;68.46
79698;SHT31;69168;42.708;23.286;2023-12-22T13:31:39;6.80;68.65
79698;SHT31;69168;42.708;23.286;2023-12-22T13:34:13;6.91;68.66
79698;SHT31;69168;42.708;23.286;2023-12-22T13:36:39;6.75;69.39
79698;SHT31;69168;42.708;23.286;2023-12-22T13:39:06;6.84;69.46
79698;SHT31;69168;42.708;23.286;2023-12-22T13:41:33;6.77;69.65
79698;SHT31;69168;42.708;23.286;2023-12-22T13:44:03;6.73;69.79
79698;SHT31;69168;42.708;23.286;2023-12-22T13:46:29;6.68;70.34
79698;SHT31;69168;42.708;23.286;2023-12-22T13:48:55;6.57;70.57
79698;SHT31;69168;42.708;23.286;2023-12-22T13:51:20;6.63;70.61
79698;SHT31;69168;42.708;23.286;2023-12-22T13:53:50;6.56;70.33
79698;SHT31;69168;42.708;23.286;2023-12-22T13:56:15;6.57;70.46
79698;SHT31;69168;42.708;23.286;2023-12-22T13:58:45;6.66;69.97
79698;SHT31;69168;42.708;23.286;2023-12-22T14:01:15;6.64;70.08
79698;SHT31;69168;42.708;23.286;2023-12-22T14:03:41;6.63;69.79
79698;SHT31;69168;42.708;23.286;2023-12-22T14:06:07;6.61;69.58
79698;SHT31;69168;42.708;23.286;2023-12-22T14:08:35;6.68;69.46
79698;SHT31;69168;42.708;23.286;2023-12-22T14:11:00;6.73;69.38
79698;SHT31;69168;42.708;23.286;2023-12-22T14:13:26;6.68;69.05
79698;SHT31;69168;42.708;23.286;2023-12-22T14:15:52;6.67;68.93
79698;SHT31;69168;42.708;23.286;2023-12-22T14:18:18;6.77;68.84
79698;SHT31;69168;42.708;23.286;2023-12-22T14:20:43;6.77;68.76
79698;SHT31;69168;42.708;23.286;2023-12-22T14:23:11;6.70;68.66
79698;SHT31;69168;42.708;23.286;2023-12-22T14:25:43;6.70;68.68
79698;SHT31;69168;42.708;23.286;2023-12-22T14:28:09;6.71;67.79
79698;SHT31;69168;42.708;23.286;2023-12-22T14:30:37;6.70;68.20
79698;SHT31;69168;42.708;23.286;2023-12-22T14:33:02;6.63;68.07
79698;SHT31;69168;42.708;23.286;2023-12-22T14:35:28;6.73;67.92
79698;SHT31;69168;42.708;23.286;2023-12-22T14:37:53;6.71;68.01
79698;SHT31;69168;42.708;23.286;2023-12-22T14:40:19;6.68;67.83
79698;SHT31;69168;42.708;23.286;2023-12-22T14:42:44;6.64;67.91
79698;SHT31;69168;42.708;23.286;2023-12-22T14:45:10;6.67;67.81
79698;SHT31;69168;42.708;23.286;2023-12-22T14:47:35;6.58;67.70
79698;SHT31;69168;42.708;23.286;2023-12-22T14:50:01;6.63;67.71
79698;SHT31;69168;42.708;23.286;2023-12-22T14:52:32;6.57;67.69
79698;SHT31;69168;42.708;23.286;2023-12-22T14:54:59;6.53;67.75
79698;SHT31;69168;42.708;23.286;2023-12-22T14:57:25;6.64;67.66
79698;SHT31;69168;42.708;23.286;2023-12-22T14:59:51;6.63;67.51
79698;SHT31;69168;42.708;23.286;2023-12-22T15:02:17;6.56;67.07
79698;SHT31;69168;42.708;23.286;2023-12-22T15:04:43;6.47;67.68
79698;SHT31;69168;42.708;23.286;2023-12-22T15:07:08;6.50;67.41
79698;SHT31;69168;42.708;23.286;2023-12-22T15:09:39;6.49;67.37
79698;SHT31;69168;42.708;23.286;2023-12-22T15:12:04;6.46;67.01
79698;SHT31;69168;42.708;23.286;2023-12-22T15:14:30;6.53;66.54
79698;SHT31;69168;42.708;23.286;2023-12-22T15:16:55;6.49;66.78
79698;SHT31;69168;42.708;23.286;2023-12-22T15:19:21;6.37;67.21
79698;SHT31;69168;42.708;23.286;2023-12-22T15:21:47;6.41;66.81
79698;SHT31;69168;42.708;23.286;2023-12-22T15:24:12;6.56;65.98
79698;SHT31;69168;42.708;23.286;2023-12-22T15:26:38;6.49;66.12
79698;SHT31;69168;42.708;23.286;2023-12-22T15:29:04;6.47;66.50
79698;SHT31;69168;42.708;23.286;2023-12-22T15:31:30;6.41;66.23
79698;SHT31;69168;42.708;23.286;2023-12-22T15:33:56;6.60;65.89
79698;SHT31;69168;42.708;23.286;2023-12-22T15:36:23;6.41;66.31